Time;durP1;ratioP1;P1;durP2;ratioP2;P2;SDS_P1;SDS_P2;PMS_P1;PMS_P2;Temp;Humidity;BMP_temperature;BMP_pressure;BME280_temperature;BME280_humidity;BME280_pressure;Samples;Min_cycle;Max_cycle;Signal;HPM_P1;HPM_P2
2023/04/21 00:01:55;;;;;;;27.57;14.67;;;;;;;-145.18;100.00;46676.03;4973212;28;20031;-67
2023/04/21 00:04:20;;;;;;;24.17;15.00;;;;;;;-145.18;100.00;46668.22;4972441;28;20055;-68
2023/04/21 00:06:46;;;;;;;26.60;15.83;;;;;;;-145.18;100.00;46666.25;4972980;28;20558;-67
2023/04/21 00:09:11;;;;;;;27.20;15.53;;;;;;;-145.18;100.00;46658.44;4973132;28;20564;-67
2023/04/21 00:11:37;;;;;;;28.57;15.53;;;;;;;-145.18;100.00;46664.31;4972557;28;20035;-67
2023/04/21 00:14:02;;;;;;;25.30;15.90;;;;;;;-145.18;100.00;46660.41;4972955;28;20046;-67
2023/04/21 00:16:27;;;;;;;26.93;15.67;;;;;;;-145.18;100.00;46662.34;4973027;28;20085;-67
2023/04/21 00:18:53;;;;;;;25.10;15.73;;;;;;;-145.18;100.00;46660.41;4972962;28;20039;-67
2023/04/21 00:21:18;;;;;;;25.17;14.50;;;;;;;-145.18;100.00;46660.41;4966946;28;20481;-67
2023/04/21 00:23:46;;;;;;;31.07;16.70;;;;;;;-145.18;100.00;46656.50;4953561;29;20102;-67
2023/04/21 00:26:11;;;;;;;29.57;15.90;;;;;;;-145.18;100.00;46654.53;4953598;29;20051;-67
2023/04/21 00:28:37;;;;;;;27.10;14.97;;;;;;;-145.18;100.00;46662.34;4953221;29;20301;-67
2023/04/21 00:31:02;;;;;;;29.07;16.87;;;;;;;-145.18;100.00;46656.50;4953300;28;20102;-67
2023/04/21 00:33:28;;;;;;;30.70;16.23;;;;;;;-145.18;100.00;46656.50;4953120;29;20074;-67
2023/04/21 00:35:53;;;;;;;29.07;16.43;;;;;;;-145.18;100.00;46658.44;4953163;29;20126;-67
2023/04/21 00:38:19;;;;;;;28.47;16.20;;;;;;;-145.18;100.00;46656.50;4962825;28;20034;-67
2023/04/21 00:40:44;;;;;;;30.77;16.20;;;;;;;-145.18;100.00;46654.53;4972649;28;20117;-67
2023/04/21 00:43:09;;;;;;;30.50;16.67;;;;;;;-145.18;100.00;46654.53;4954946;28;20030;-67
2023/04/21 00:45:35;;;;;;;31.50;16.93;;;;;;;-145.18;100.00;46654.53;4972354;28;20767;-67
2023/04/21 00:48:00;;;;;;;34.10;16.77;;;;;;;-145.18;100.00;46654.53;4972365;28;20027;-67
2023/04/21 00:50:26;;;;;;;35.50;17.87;;;;;;;-145.18;100.00;46650.63;4965663;28;20034;-67
2023/04/21 00:52:52;;;;;;;30.03;16.37;;;;;;;-145.18;100.00;46648.69;4952666;28;20031;-67
2023/04/21 00:55:17;;;;;;;32.97;16.77;;;;;;;-145.18;100.00;46652.59;4953263;28;20289;-67
2023/04/21 00:57:43;;;;;;;34.57;18.33;;;;;;;-145.18;100.00;46656.50;4952677;29;20039;-68
2023/04/21 01:00:09;;;;;;;31.33;17.30;;;;;;;-145.18;100.00;46654.53;4953191;28;20444;-68
2023/04/21 01:02:36;;;;;;;34.27;18.23;;;;;;;-145.18;100.00;46648.69;4971965;28;20105;-68
2023/04/21 01:05:06;;;;;;;34.97;16.67;;;;;;;-145.18;100.00;46656.50;4971789;28;20083;-67
2023/04/21 01:07:31;;;;;;;35.00;17.70;;;;;;;-145.18;100.00;46650.63;4956991;28;20280;-68
2023/04/21 01:09:58;;;;;;;32.90;17.20;;;;;;;-145.18;100.00;46650.63;4952888;28;21052;-67
2023/04/21 01:12:24;;;;;;;29.10;16.50;;;;;;;-145.18;100.00;46652.59;4953102;28;20038;-68
2023/04/21 01:14:49;;;;;;;35.20;17.07;;;;;;;-145.18;100.00;46650.63;4952577;29;20301;-68
2023/04/21 01:17:17;;;;;;;31.90;16.03;;;;;;;-145.18;100.00;46650.63;4952158;29;20408;-68
2023/04/21 01:19:43;;;;;;;38.13;17.43;;;;;;;-145.18;100.00;46646.72;4952618;29;20037;-67
2023/04/21 01:22:11;;;;;;;34.30;16.77;;;;;;;-145.18;100.00;46644.78;4953280;28;20281;-68
2023/04/21 01:24:40;;;;;;;35.00;17.13;;;;;;;-145.18;100.00;46648.69;4935266;29;20281;-68
2023/04/21 01:27:10;;;;;;;35.63;16.67;;;;;;;-145.18;100.00;46646.72;4959114;28;20777;-68
2023/04/21 01:29:36;;;;;;;33.20;17.27;;;;;;;-145.18;100.00;46652.59;4971469;28;20323;-68
2023/04/21 01:32:08;;;;;;;36.70;17.97;;;;;;;-145.18;100.00;46648.69;4971276;28;20285;-68
2023/04/21 01:34:33;;;;;;;33.83;17.30;;;;;;;-145.18;100.00;46650.63;4971629;28;20296;-68
2023/04/21 01:36:59;;;;;;;36.27;17.13;;;;;;;-145.18;100.00;46640.88;4971411;28;20619;-68
2023/04/21 01:39:24;;;;;;;34.60;17.33;;;;;;;-145.18;100.00;46646.72;4971386;28;20140;-68
2023/04/21 01:41:50;;;;;;;32.40;15.50;;;;;;;-145.18;100.00;46646.72;4971112;28;20404;-68
2023/04/21 01:44:15;;;;;;;31.10;15.10;;;;;;;-145.18;100.00;46644.78;4969801;28;20513;-68
2023/04/21 01:46:41;;;;;;;26.73;15.17;;;;;;;-145.18;100.00;46648.69;4971242;28;20050;-68
2023/04/21 01:49:06;;;;;;;28.50;15.50;;;;;;;-145.18;100.00;46646.72;4971208;28;20532;-68
2023/04/21 01:51:32;;;;;;;28.67;14.77;;;;;;;-145.18;100.00;46650.63;4958981;28;20047;-68
2023/04/21 01:53:57;;;;;;;30.50;15.80;;;;;;;-145.18;100.00;46650.63;4951667;29;20121;-68
2023/04/21 01:56:23;;;;;;;29.27;14.40;;;;;;;-145.18;100.00;46648.69;4952011;29;20039;-68
2023/04/21 01:58:48;;;;;;;23.97;13.17;;;;;;;-145.18;100.00;46644.78;4952873;28;20049;-68
2023/04/21 02:03:48;;;;;;;31.63;15.50;;;;;;;-145.18;100.00;46646.72;4738987;22;20051;-67
2023/04/21 02:06:14;;;;;;;31.57;15.53;;;;;;;-145.18;100.00;46646.72;4979471;28;20034;-67
2023/04/21 02:08:39;;;;;;;26.70;14.63;;;;;;;-145.18;100.00;46648.69;4986576;28;20039;-67
2023/04/21 02:11:04;;;;;;;31.93;16.07;;;;;;;-145.18;100.00;46646.72;4971415;28;20508;-67
2023/04/21 02:13:30;;;;;;;28.47;15.27;;;;;;;-145.18;100.00;46652.59;4989606;28;20375;-67
2023/04/21 02:15:55;;;;;;;30.80;15.50;;;;;;;-145.18;100.00;46654.53;4990518;28;20034;-67
2023/04/21 02:18:21;;;;;;;28.33;15.30;;;;;;;-145.18;100.00;46646.72;4988437;28;20125;-67
2023/04/21 02:20:46;;;;;;;30.87;16.37;;;;;;;-145.18;100.00;46656.50;4990920;28;20046;-67
2023/04/21 02:23:11;;;;;;;32.70;17.70;;;;;;;-145.18;100.00;46644.78;4990580;28;20479;-67
2023/04/21 02:25:37;;;;;;;37.10;18.63;;;;;;;-145.18;100.00;46648.69;4990753;28;20117;-67
2023/04/21 02:28:02;;;;;;;37.60;18.80;;;;;;;-145.18;100.00;46644.78;4990516;28;20039;-67
2023/04/21 02:30:27;;;;;;;38.13;19.47;;;;;;;-145.18;100.00;46642.81;4986635;28;20062;-67
2023/04/21 02:32:53;;;;;;;40.10;18.77;;;;;;;-145.18;100.00;46646.72;4990120;28;20046;-67
2023/04/21 02:35:18;;;;;;;39.10;18.63;;;;;;;-145.18;100.00;46648.69;4990733;28;20436;-67
2023/04/21 02:37:44;;;;;;;40.00;20.23;;;;;;;-145.18;100.00;46644.78;4990478;28;20042;-67
2023/04/21 02:40:09;;;;;;;45.57;20.23;;;;;;;-145.18;100.00;46642.81;4989959;28;20478;-67
2023/04/21 02:42:35;;;;;;;41.60;20.10;;;;;;;-145.18;100.00;46642.81;4990785;28;20030;-67
2023/04/21 02:45:00;;;;;;;45.47;21.13;;;;;;;-145.18;100.00;46650.63;4990243;28;20094;-67
2023/04/21 02:47:26;;;;;;;41.30;19.40;;;;;;;-145.18;100.00;46640.88;4990530;28;20031;-67
2023/04/21 02:49:51;;;;;;;39.90;19.80;;;;;;;-145.18;100.00;46642.81;4990026;28;20093;-68
2023/04/21 02:52:16;;;;;;;40.47;21.13;;;;;;;-145.18;100.00;46644.78;4986218;28;20042;-67
2023/04/21 02:54:42;;;;;;;41.47;19.50;;;;;;;-145.18;100.00;46642.81;4979297;28;20047;-67
2023/04/21 02:57:07;;;;;;;40.53;18.60;;;;;;;-145.18;100.00;46640.88;4970510;28;20045;-67
2023/04/21 02:59:32;;;;;;;40.67;19.80;;;;;;;-145.18;100.00;46642.81;4971316;28;20085;-67
2023/04/21 03:01:58;;;;;;;40.40;18.93;;;;;;;-145.18;100.00;46640.88;4970554;28;20054;-67
2023/04/21 03:04:24;;;;;;;43.40;19.93;;;;;;;-145.18;100.00;46644.78;4971201;28;20050;-67
2023/04/21 03:06:51;;;;;;;43.80;20.27;;;;;;;-145.18;100.00;46642.81;4971061;28;20427;-67
2023/04/21 03:09:16;;;;;;;42.97;19.73;;;;;;;-145.18;100.00;46642.81;4970902;28;20039;-67
2023/04/21 03:11:41;;;;;;;43.20;19.60;;;;;;;-145.18;100.00;46644.78;4971108;28;20776;-67
2023/04/21 03:14:07;;;;;;;45.07;21.07;;;;;;;-145.18;100.00;46644.78;4970602;28;20053;-67
2023/04/21 03:16:32;;;;;;;47.00;21.70;;;;;;;-145.18;100.00;46646.72;4970993;28;20038;-67
2023/04/21 03:18:57;;;;;;;43.83;21.80;;;;;;;-145.18;100.00;46646.72;4979932;28;20117;-67
2023/04/21 03:21:23;;;;;;;47.80;22.57;;;;;;;-145.18;100.00;46642.81;4992547;28;20074;-67
2023/04/21 03:23:48;;;;;;;49.60;24.60;;;;;;;-145.18;100.00;46638.91;4993495;28;20034;-67
2023/04/21 03:26:13;;;;;;;49.87;24.17;;;;;;;-145.18;100.00;46642.81;4991214;28;20034;-67
2023/04/21 03:28:39;;;;;;;51.07;24.40;;;;;;;-145.18;100.00;46638.91;4977122;28;20069;-67
2023/04/21 03:31:04;;;;;;;52.93;24.83;;;;;;;-145.18;100.00;46642.81;4989408;28;20069;-67
2023/04/21 03:33:30;;;;;;;52.00;23.37;;;;;;;-145.18;100.00;46642.81;4991495;28;20030;-67
2023/04/21 03:35:55;;;;;;;52.40;21.93;;;;;;;-145.18;100.00;46640.88;4993022;28;20038;-68
2023/04/21 03:38:20;;;;;;;42.57;21.80;;;;;;;-145.18;100.00;46642.81;4988788;28;20074;-67
2023/04/21 03:40:46;;;;;;;50.20;22.07;;;;;;;-145.18;100.00;46640.88;4979476;28;20046;-67
2023/04/21 03:43:11;;;;;;;48.70;22.80;;;;;;;-145.18;100.00;46640.88;4990672;28;20049;-67
2023/04/21 03:45:37;;;;;;;51.40;22.20;;;;;;;-145.18;100.00;46642.81;4959184;28;20035;-67
2023/04/21 03:48:02;;;;;;;49.73;22.53;;;;;;;-145.18;100.00;46636.94;4992216;28;20089;-67
2023/04/21 03:50:28;;;;;;;56.17;24.47;;;;;;;-145.18;100.00;46636.94;4992055;28;20048;-67
2023/04/21 03:52:53;;;;;;;57.70;25.23;;;;;;;-145.18;100.00;46636.94;4992211;28;20514;-67
2023/04/21 03:55:19;;;;;;;52.73;24.20;;;;;;;-145.18;100.00;46636.94;4990051;28;20462;-67
2023/04/21 03:57:44;;;;;;;50.33;23.03;;;;;;;-145.18;100.00;46640.88;4988965;28;20103;-67
2023/04/21 04:00:10;;;;;;;55.37;23.17;;;;;;;-145.18;100.00;46640.88;4991456;28;20439;-67
2023/04/21 04:02:36;;;;;;;59.50;23.60;;;;;;;-145.18;100.00;46640.88;4990922;28;20105;-67
2023/04/21 04:05:04;;;;;;;54.73;23.70;;;;;;;-145.18;100.00;46636.94;4992537;28;20296;-67
2023/04/21 04:07:32;;;;;;;62.00;23.57;;;;;;;-145.18;100.00;46638.91;4992006;28;20042;-67
2023/04/21 04:09:58;;;;;;;59.40;26.13;;;;;;;-145.18;100.00;46640.88;4977569;28;20276;-67
2023/04/21 04:12:23;;;;;;;56.93;24.03;;;;;;;-145.18;100.00;46635.00;4992474;28;20379;-67
2023/04/21 04:14:49;;;;;;;57.00;25.37;;;;;;;-145.18;100.00;46642.81;4992412;28;20398;-67
2023/04/21 04:17:15;;;;;;;51.40;25.23;;;;;;;-145.18;100.00;46636.94;4990677;28;20038;-67
2023/04/21 04:19:40;;;;;;;51.30;23.80;;;;;;;-145.18;100.00;46636.94;4991421;28;20066;-67
2023/04/21 04:22:05;;;;;;;58.43;25.37;;;;;;;-145.18;100.00;46635.00;4991585;28;20038;-67
2023/04/21 04:24:34;;;;;;;57.70;25.33;;;;;;;-145.18;100.00;46636.94;4992387;28;20072;-67
2023/04/21 04:27:01;;;;;;;62.57;25.67;;;;;;;-145.18;100.00;46636.94;4992171;28;20387;-67
2023/04/21 04:29:27;;;;;;;62.40;26.40;;;;;;;-145.18;100.00;46636.94;4991734;28;20391;-67
2023/04/21 04:31:52;;;;;;;71.97;25.43;;;;;;;-145.18;100.00;46635.00;4992160;28;20355;-67
2023/04/21 04:34:18;;;;;;;59.13;26.10;;;;;;;-145.18;100.00;46636.94;4992391;28;20041;-67
2023/04/21 04:36:44;;;;;;;63.37;26.23;;;;;;;-145.18;100.00;46636.94;4980486;28;20030;-67
2023/04/21 04:39:09;;;;;;;63.90;25.37;;;;;;;-145.18;100.00;46633.06;4972742;28;20563;-67
2023/04/21 04:41:36;;;;;;;61.70;27.83;;;;;;;-145.18;100.00;46636.94;4972750;28;20348;-67
2023/04/21 04:44:03;;;;;;;61.20;26.77;;;;;;;-145.18;100.00;46636.94;4972621;28;20082;-67
2023/04/21 04:46:28;;;;;;;62.10;26.43;;;;;;;-145.18;100.00;46636.94;4971634;28;20285;-67
2023/04/21 04:48:54;;;;;;;64.67;27.13;;;;;;;-145.18;100.00;46635.00;4972475;28;20272;-67
2023/04/21 04:51:19;;;;;;;59.90;26.67;;;;;;;-145.18;100.00;46636.94;4972631;28;20523;-67
2023/04/21 04:53:44;;;;;;;60.67;27.53;;;;;;;-145.18;100.00;46633.06;4972428;28;20451;-67
2023/04/21 04:56:10;;;;;;;56.00;26.27;;;;;;;-145.18;100.00;46633.06;4986654;28;20034;-67
2023/04/21 04:58:35;;;;;;;57.87;26.60;;;;;;;-145.18;100.00;46642.81;4991225;28;20054;-67
2023/04/21 05:01:11;;;;;;;61.57;28.70;;;;;;;-145.18;100.00;46635.00;4991209;28;20062;-67
2023/04/21 05:03:36;;;;;;;;;;;;;;;-145.18;100.00;46635.00;4986196;28;20057;-67
2023/04/21 05:06:01;;;;;;;61.93;27.47;;;;;;;-145.18;100.00;46640.88;4972217;28;19921;-67
2023/04/21 05:08:27;;;;;;;62.97;27.03;;;;;;;-145.18;100.00;46629.13;4972370;28;20026;-67
2023/04/21 05:10:52;;;;;;;64.70;28.97;;;;;;;-145.18;100.00;46640.88;4982544;28;20042;-67
2023/04/21 05:13:17;;;;;;;62.03;28.90;;;;;;;-145.18;100.00;46638.91;4971551;28;20030;-67
2023/04/21 05:15:43;;;;;;;69.50;28.80;;;;;;;-145.18;100.00;46635.00;4989501;28;20484;-67
2023/04/21 05:18:08;;;;;;;68.87;29.80;;;;;;;-145.18;100.00;46640.88;4990417;28;20113;-67
2023/04/21 05:20:33;;;;;;;65.03;29.13;;;;;;;-145.18;100.00;46638.91;4976761;28;20077;-67
2023/04/21 05:22:59;;;;;;;68.37;29.57;;;;;;;-145.18;100.00;46636.94;4979254;28;20100;-66
2023/04/21 05:25:24;;;;;;;65.97;29.13;;;;;;;-145.18;100.00;46636.94;4991702;28;20558;-67
2023/04/21 05:27:50;;;;;;;65.10;30.33;;;;;;;-145.18;100.00;46636.94;4990961;28;20378;-67
2023/04/21 05:30:15;;;;;;;64.13;28.83;;;;;;;-145.18;100.00;46636.94;4978498;28;20098;-67
2023/04/21 05:32:40;;;;;;;64.90;28.50;;;;;;;-145.18;100.00;46633.06;4982937;28;20041;-67
2023/04/21 05:35:06;;;;;;;70.03;29.03;;;;;;;-145.18;100.00;46640.88;4991045;28;20034;-67
2023/04/21 05:37:32;;;;;;;71.10;30.77;;;;;;;-145.18;100.00;46640.88;4991016;28;20039;-67
2023/04/21 05:39:57;;;;;;;65.10;30.03;;;;;;;-145.18;100.00;46638.91;4990458;28;20105;-67
2023/04/21 05:42:22;;;;;;;72.60;30.07;;;;;;;-145.18;100.00;46640.88;4990863;28;20118;-67
2023/04/21 05:44:48;;;;;;;63.67;28.40;;;;;;;-145.18;100.00;46640.88;4989153;28;20495;-67
2023/04/21 05:47:13;;;;;;;66.80;30.83;;;;;;;-145.18;100.00;46636.94;4986751;28;20664;-67
2023/04/21 05:49:38;;;;;;;66.60;29.77;;;;;;;-145.18;100.00;46638.91;4986231;28;20128;-67
2023/04/21 05:52:04;;;;;;;65.30;31.07;;;;;;;-145.18;100.00;46635.00;4981297;28;20499;-67
2023/04/21 05:54:29;;;;;;;67.37;30.03;;;;;;;-145.18;100.00;46640.88;4988523;28;20099;-67
2023/04/21 05:56:55;;;;;;;67.07;30.37;;;;;;;-145.18;100.00;46636.94;4984286;28;20127;-67
2023/04/21 05:59:21;;;;;;;65.23;29.27;;;;;;;-145.18;100.00;46642.81;4990285;28;20138;-67
2023/04/21 06:01:46;;;;;;;69.93;29.80;;;;;;;-145.18;100.00;46642.81;4984929;28;21731;-67
2023/04/21 06:04:12;;;;;;;61.30;29.60;;;;;;;-145.18;100.00;46640.88;4979761;28;20055;-67
2023/04/21 06:06:37;;;;;;;71.17;30.57;;;;;;;-145.18;100.00;46638.91;4982107;28;20031;-67
2023/04/21 06:09:04;;;;;;;65.17;31.63;;;;;;;-145.18;100.00;46636.94;4989317;28;20030;-67
2023/04/21 06:11:29;;;;;;;66.27;32.10;;;;;;;-145.18;100.00;46633.06;4989270;28;20402;-67
2023/04/21 06:13:57;;;;;;;67.63;31.10;;;;;;;-145.18;100.00;46635.00;4988422;28;20295;-67
2023/04/21 06:16:22;;;;;;;71.67;31.73;;;;;;;-145.18;100.00;46633.06;4989615;28;20041;-67
2023/04/21 06:18:47;;;;;;;67.87;31.53;;;;;;;-145.18;100.00;46636.94;4989876;28;20347;-67
2023/04/21 06:21:13;;;;;;;69.10;32.37;;;;;;;-145.18;100.00;46635.00;5005415;28;20034;-67
2023/04/21 06:23:38;;;;;;;62.10;31.53;;;;;;;-145.18;100.00;46635.00;4985285;28;20069;-67
2023/04/21 06:26:05;;;;;;;68.17;31.97;;;;;;;-145.18;100.00;46629.13;4989430;28;20662;-67
2023/04/21 06:28:32;;;;;;;70.70;32.17;;;;;;;-145.18;100.00;46631.09;4988085;28;20033;-67
2023/04/21 06:31:01;;;;;;;67.63;32.77;;;;;;;-145.18;100.00;46636.94;4980642;28;20276;-67
2023/04/21 06:33:28;;;;;;;65.03;31.80;;;;;;;-145.18;100.00;46636.94;4989568;28;20642;-67
2023/04/21 06:35:54;;;;;;;68.33;31.07;;;;;;;-145.18;100.00;46636.94;4988669;28;20291;-67
2023/04/21 06:38:20;;;;;;;65.67;32.37;;;;;;;-145.18;100.00;46636.94;4989238;28;20271;-67
2023/04/21 06:40:45;;;;;;;64.80;29.17;;;;;;;-145.18;100.00;46640.88;4990192;28;20066;-67
2023/04/21 06:43:10;;;;;;;70.30;32.37;;;;;;;-145.18;100.00;46638.91;4989361;28;20043;-67
2023/04/21 06:45:36;;;;;;;69.33;32.20;;;;;;;-145.18;100.00;46636.94;4990092;28;20491;-67
2023/04/21 06:48:01;;;;;;;67.07;31.57;;;;;;;-145.18;100.00;46635.00;4991910;28;20116;-67
2023/04/21 06:50:26;;;;;;;70.50;32.57;;;;;;;-145.18;100.00;46640.88;4990111;28;20034;-67
2023/04/21 06:52:52;;;;;;;71.17;31.97;;;;;;;-145.18;100.00;46640.88;4992279;28;20037;-67
2023/04/21 06:55:17;;;;;;;67.03;32.37;;;;;;;-145.18;100.00;46644.78;4991586;28;20066;-67
2023/04/21 06:57:42;;;;;;;63.00;31.03;;;;;;;-145.18;100.00;46644.78;4988145;28;20037;-67
2023/04/21 07:00:08;;;;;;;64.73;31.00;;;;;;;-145.18;100.00;46644.78;4989274;28;20031;-67
2023/04/21 07:02:34;;;;;;;66.50;32.17;;;;;;;-145.18;100.00;46644.78;4993199;28;20030;-67
2023/04/21 07:04:59;;;;;;;73.60;33.57;;;;;;;-145.18;100.00;46648.69;4992350;28;20636;-67
2023/04/21 07:07:25;;;;;;;58.70;30.03;;;;;;;-145.18;100.00;46652.59;4993064;28;20061;-67
2023/04/21 07:09:50;;;;;;;71.60;33.77;;;;;;;-145.18;100.00;46654.53;4993211;28;20042;-67
2023/04/21 07:12:16;;;;;;;68.17;32.20;;;;;;;-145.18;100.00;46652.59;4992977;28;20514;-67
2023/04/21 07:14:41;;;;;;;66.53;31.73;;;;;;;-145.18;100.00;46650.63;4993273;28;20116;-67
2023/04/21 07:17:07;;;;;;;64.10;32.83;;;;;;;-145.18;100.00;46658.44;4993156;28;20038;-67
2023/04/21 07:19:32;;;;;;;65.57;32.33;;;;;;;-145.18;100.00;46660.41;4992635;28;20470;-67
2023/04/21 07:21:58;;;;;;;60.77;30.87;;;;;;;-145.18;100.00;46656.50;4993028;28;20075;-67
2023/04/21 07:24:23;;;;;;;60.47;31.43;;;;;;;-145.18;100.00;46668.22;4992708;28;20058;-67
2023/04/21 07:26:48;;;;;;;62.83;30.93;;;;;;;-145.18;100.00;46664.31;4993347;28;20037;-67
2023/04/21 07:29:14;;;;;;;63.83;32.50;;;;;;;-145.18;100.00;46664.31;4991098;28;20502;-67
2023/04/21 07:31:39;;;;;;;61.80;31.30;;;;;;;-145.18;100.00;46664.31;4991670;28;20153;-67
2023/04/21 07:34:05;;;;;;;56.93;31.03;;;;;;;-145.18;100.00;46670.16;4992512;28;20402;-67
2023/04/21 07:36:30;;;;;;;57.43;31.47;;;;;;;-145.18;100.00;46666.25;4990584;28;20597;-67
2023/04/21 07:38:55;;;;;;;59.87;31.40;;;;;;;-145.18;100.00;46662.34;4983964;28;20447;-67
2023/04/21 07:41:21;;;;;;;53.73;30.03;;;;;;;-145.18;100.00;46666.25;4992094;28;20518;-67
2023/04/21 07:43:46;;;;;;;52.03;28.47;;;;;;;-145.18;100.00;46672.13;4992234;28;20042;-67
2023/04/21 07:46:12;;;;;;;54.83;28.93;;;;;;;-145.18;100.00;46666.25;4991722;28;20576;-67
2023/04/21 07:48:39;;;;;;;48.00;27.53;;;;;;;-145.18;100.00;46670.16;4986540;28;20045;-67
2023/04/21 07:51:04;;;;;;;53.40;29.13;;;;;;;-145.18;100.00;46672.13;4992684;28;20038;-67
2023/04/21 07:53:30;;;;;;;46.07;27.00;;;;;;;-145.18;100.00;46672.13;4992262;28;20295;-67
2023/04/21 07:55:55;;;;;;;50.00;27.60;;;;;;;-145.18;100.00;46660.41;4992539;28;20038;-67
2023/04/21 07:58:21;;;;;;;46.60;25.77;;;;;;;-145.18;100.00;46648.69;4981230;28;20387;-67
2023/04/21 08:00:46;;;;;;;47.87;26.97;;;;;;;-145.18;100.00;46648.69;4989673;28;20495;-67
2023/04/21 08:03:12;;;;;;;46.23;25.80;;;;;;;-145.18;100.00;46609.59;4985170;28;20061;-67
2023/04/21 08:05:37;;;;;;;48.00;26.77;;;;;;;-145.18;100.00;46578.34;4989192;28;20492;-67
2023/04/21 08:08:03;;;;;;;44.37;26.50;;;;;;;-145.18;100.00;46552.97;4988641;28;20035;-67
2023/04/21 08:10:28;;;;;;;50.03;26.83;;;;;;;-145.18;100.00;46554.91;4991355;28;20031;-67
2023/04/21 08:12:54;;;;;;;45.17;23.30;;;;;;;-145.18;100.00;46541.25;4991703;28;20117;-68
2023/04/21 08:15:19;;;;;;;43.93;24.37;;;;;;;-145.18;100.00;46545.16;4989648;28;20121;-67
2023/04/21 08:17:45;;;;;;;36.27;21.20;;;;;;;-145.18;100.00;46549.06;4984512;28;20038;-67
2023/04/21 08:20:10;;;;;;;39.57;23.80;;;;;;;-145.18;100.00;46556.88;4991506;28;20454;-67
2023/04/21 08:22:36;;;;;;;40.80;22.90;;;;;;;-145.18;100.00;46568.59;4991601;28;20440;-68
2023/04/21 08:25:03;;;;;;;39.33;22.03;;;;;;;-145.18;100.00;46570.53;4989705;28;20121;-67
2023/04/21 08:27:28;;;;;;;40.43;23.63;;;;;;;-145.18;100.00;46568.59;4991683;28;20049;-68
2023/04/21 08:29:54;;;;;;;38.53;22.43;;;;;;;-145.18;100.00;46558.81;4991495;28;20539;-68
2023/04/21 08:32:23;;;;;;;35.57;20.87;;;;;;;-145.18;100.00;46560.78;4991967;28;20027;-67
2023/04/21 08:34:53;;;;;;;40.63;22.00;;;;;;;-145.18;100.00;46568.59;4991178;28;20100;-67
2023/04/21 08:37:20;;;;;;;36.37;22.77;;;;;;;-145.18;100.00;46570.53;4991439;28;20022;-68
2023/04/21 08:39:46;;;;;;;36.03;22.17;;;;;;;-145.18;100.00;46584.22;4990923;28;20038;-68
2023/04/21 08:42:16;;;;;;;34.37;21.17;;;;;;;-145.18;100.00;46580.31;4987939;28;20054;-68
2023/04/21 08:44:42;;;;;;;35.03;21.20;;;;;;;-145.18;100.00;46592.03;4991425;28;20041;-68
2023/04/21 08:47:10;;;;;;;34.87;20.53;;;;;;;-145.18;100.00;46590.06;4990630;28;20064;-68
2023/04/21 08:49:37;;;;;;;38.33;21.57;;;;;;;-145.18;100.00;46590.06;4990665;28;20042;-68
2023/04/21 08:52:02;;;;;;;31.83;19.73;;;;;;;-145.18;100.00;46590.06;4991631;28;20029;-67
2023/04/21 08:54:28;;;;;;;34.37;20.00;;;;;;;-145.18;100.00;46592.03;4990630;28;20451;-68
2023/04/21 08:56:53;;;;;;;32.27;18.60;;;;;;;-145.18;100.00;46597.88;4983102;28;20065;-68
2023/04/21 08:59:18;;;;;;;28.20;18.70;;;;;;;-145.18;100.00;46590.06;4990689;28;20034;-67
2023/04/21 09:02:10;;;;;;;32.93;19.33;;;;;;;-145.18;100.00;46601.78;4991159;28;20081;-68
2023/04/21 09:04:43;;;;;;;30.27;19.57;;;;;;;-145.18;100.00;46588.13;4982512;28;20058;-68
2023/04/21 09:07:09;;;;;;;29.73;17.87;;;;;;;-145.18;100.00;46621.31;4989159;28;20093;-68
2023/04/21 09:09:54;;;;;;;29.43;17.53;;;;;;;-145.18;100.00;46640.88;4990915;28;20110;-68
2023/04/21 09:12:20;;;;;;;28.00;17.73;;;;;;;-145.18;100.00;46685.78;4991122;28;20045;-67
2023/04/21 09:14:46;;;;;;;28.47;17.70;;;;;;;-145.18;100.00;46693.59;4989388;28;20042;-68
2023/04/21 09:17:11;;;;;;;28.63;17.27;;;;;;;-145.18;100.00;46668.22;4990424;28;20034;-68
2023/04/21 09:19:36;;;;;;;31.33;19.10;;;;;;;-145.18;100.00;46670.16;4989768;28;20109;-67
2023/04/21 09:22:02;;;;;;;30.73;18.20;;;;;;;-145.18;100.00;46695.56;4978939;28;20508;-68
2023/04/21 09:24:27;;;;;;;29.87;18.37;;;;;;;-145.18;100.00;46699.47;4990580;28;20030;-68
2023/04/21 09:26:53;;;;;;;28.80;16.47;;;;;;;-145.18;100.00;46677.97;4989975;28;20032;-67
2023/04/21 09:29:23;;;;;;;28.97;17.60;;;;;;;-145.18;100.00;46687.75;4989981;28;20391;-68
2023/04/21 09:31:50;;;;;;;27.90;18.23;;;;;;;-145.18;100.00;46701.41;4990495;28;20114;-68
2023/04/21 09:34:19;;;;;;;29.90;18.87;;;;;;;-145.18;100.00;46691.66;4989530;28;20053;-67
2023/04/21 09:36:46;;;;;;;31.53;18.97;;;;;;;-145.18;100.00;46681.88;4978419;28;20125;-68
2023/04/21 09:39:11;;;;;;;29.67;18.17;;;;;;;-145.18;100.00;46691.66;4988873;28;20042;-67
2023/04/21 09:41:37;;;;;;;28.87;17.30;;;;;;;-145.18;100.00;46697.50;4990046;28;20095;-67
2023/04/21 09:44:03;;;;;;;28.60;17.67;;;;;;;-145.18;100.00;46652.59;4990002;28;20043;-67
2023/04/21 09:46:32;;;;;;;29.33;17.97;;;;;;;-145.18;100.00;46654.53;4990374;28;20135;-68
2023/04/21 09:49:00;;;;;;;26.30;16.60;;;;;;;-145.18;100.00;46631.09;4989136;28;20166;-67
2023/04/21 09:51:26;;;;;;;25.93;17.53;;;;;;;-145.18;100.00;46631.09;4981815;28;20630;-67
2023/04/21 09:53:58;;;;;;;28.77;18.07;;;;;;;-145.18;100.00;46623.28;4985472;28;20391;-67
2023/04/21 09:56:25;;;;;;;30.00;17.53;;;;;;;-145.18;100.00;46621.31;4975084;28;20035;-68
2023/04/21 09:58:57;;;;;;;28.37;17.60;;;;;;;-145.18;100.00;46629.13;4990029;28;20031;-67
2023/04/21 10:01:25;;;;;;;27.80;17.80;;;;;;;-145.18;100.00;46664.31;4990278;28;20395;-68
2023/04/21 10:03:52;;;;;;;31.07;18.50;;;;;;;-145.18;100.00;46654.53;4989960;28;20395;-67
2023/04/21 10:06:18;;;;;;;31.40;18.93;;;;;;;-145.18;100.00;46648.69;4990116;28;20038;-67
2023/04/21 10:08:44;;;;;;;27.80;17.93;;;;;;;-145.18;100.00;46652.59;4983151;28;20413;-67
2023/04/21 10:11:11;;;;;;;26.37;17.40;;;;;;;-145.18;100.00;46658.44;4989867;28;20113;-67
2023/04/21 10:13:38;;;;;;;27.03;16.77;;;;;;;-145.18;100.00;46629.13;4987090;28;20069;-67
2023/04/21 10:16:06;;;;;;;27.10;17.30;;;;;;;-145.18;100.00;46640.88;4980118;28;20031;-67
2023/04/21 10:18:35;;;;;;;24.60;16.17;;;;;;;-145.18;100.00;46633.06;4989421;28;20487;-68
2023/04/21 10:21:01;;;;;;;24.90;16.30;;;;;;;-145.18;100.00;46672.13;4984674;28;20398;-67
2023/04/21 10:23:34;;;;;;;24.63;15.30;;;;;;;-145.18;100.00;46670.16;4989746;28;20113;-67
2023/04/21 10:26:07;;;;;;;23.97;14.73;;;;;;;-145.18;100.00;46670.16;4990628;28;20030;-67
2023/04/21 10:28:40;;;;;;;23.50;14.57;;;;;;;-145.18;100.00;46683.84;4991522;28;20398;-67
2023/04/21 10:34:08;;;;;;;21.67;14.30;;;;;;;-145.18;100.00;46691.66;5054197;23;20130;-73
2023/04/21 10:36:41;;;;;;;19.97;12.47;;;;;;;-145.18;100.00;47176.09;5026751;28;20115;-73
2023/04/21 10:39:06;;;;;;;19.13;12.43;;;;;;;-145.18;100.00;47316.78;5026474;28;20389;-73
2023/04/21 10:41:33;;;;;;;19.87;13.00;;;;;;;-145.18;100.00;47342.16;5029939;28;20034;-73
2023/04/21 10:44:15;;;;;;;18.93;12.00;;;;;;;-145.18;100.00;47203.47;5022125;28;20029;-73
2023/04/21 10:46:45;;;;;;;18.03;12.27;;;;;;;-145.18;100.00;47340.22;5029109;28;20034;-73
2023/04/21 10:49:20;;;;;;;18.73;12.07;;;;;;;-145.18;100.00;47307.00;5031855;28;20354;-73
2023/04/21 10:52:06;;;;;;;19.50;13.00;;;;;;;-145.18;100.00;47379.28;5018849;28;20051;-73
2023/04/21 10:54:44;;;;;;;19.73;12.53;;;;;;;-145.18;100.00;47320.69;5020398;28;20034;-73
2023/04/21 10:57:11;;;;;;;23.47;13.93;;;;;;;-145.18;100.00;47389.06;5026020;28;20160;-73